Terminal Aerodrome Forecast
Issued by NWS Charleston, WV

Home | Current Version | Previous Version | Text Only | Print | Product List | Glossary On
Versions: 1 2 3 4 5 6 7 8 9 10 11 12 13 14 15 16 17 18 19 20 21 22 23 24 25 26
000
FTUS41 KRLX 041120
TAFCRW
TAF
KCRW 041120Z 0412/0512 00000KT 1/2SM FG VV001
      TEMPO 0412/0413 2SM BR SCT001
     FM041300 00000KT 4SM BR SCT002
     FM041400 00000KT P6SM SCT035
     FM041700 00000KT P6SM BKN040
     FM041900 00000KT P6SM VCTS BKN040CB
     FM042300 00000KT P6SM BKN040
     FM050400 VRB03KT 4SM BR SCT040
     FM050700 VRB03KT 1SM BR SCT001=

USA.gov is the U.S. government's official web portal to all federal, state and local government web resources and services.